Relevés horaires Charleroi (Belgique)


Relevés horaires à Charleroi - Lundi 15 Avr. 2019
Heure UTC1 Température [°C] Vent [km/h] Hum. [%] Pres.4 [hPa] Visi. [Km] Nébu. [octa] Préc.5 [mm] Cond.
2m. Res. Ros. Dir.2 Vit. Moy. Raf.3
23:00 10.6 10.3 3.0 E 5.6 7.4 9.3 59 1016.3(-0.7/3h) 20 1/8 -- --
22:00 11.3 10.7 3.1 E 7.4 7.4 13.0 57 1016.4(0.2/3h) 20 1/8 -- --
21:00 11.9 11.8 3.2 E 5.6 9.3 16.7 55 1016.6(0.3/3h) 20 1/8 -- --
20:00 13.5 13.2 3.2 E 7.4 9.3 13.0 50 1016.7(0.0/3h) 20 1/8 -- --
19:00 14.2 14 3.4 E 7.4 9.3 16.7 48 1016.4(-0.7/3h) 20 1/8 -- --
18:00 15.4 15.2 3.3 E 9.3 13.0 22.2 44 1016.1(-1.7/3h) 20 1/8 0/12h
--
17:00 16.2 15.9 2.6 E 11.1 13.0 18.5 40 1016.5(-2.2/3h) 20 1/8 -- --
16:00 15.7 15.1 5.0 ENE 13.0 13.0 18.5 49 1017(-3.1/3h) 20 1/8 -- --
15:00 15.9 15.4 4.1 ENE 13.0 13.0 22.2 45 1017.8(-3.7/3h) 20 1/8 -- --
14:00 15.4 15.2 1.1 ESE 9.3 11.1 20.4 38 1018.7(-3.8/3h) 15 1/8 -- --
13:00 13.6 12.8 0.4 E 11.1 11.1 18.5 40 1020.4(-3.1/3h) 15 1/8 -- --
12:00 11.6 11 0.3 E 7.4 9.3 16.7 46 1021.9(-2.1/3h) 15 1/8 0/6h
--
11:00 9.9 9.5 0.6 E 5.6 7.4 13.0 52 1023.1(-1.4/3h) 15 1/8 -- --
10:00 8.4 8.4 0.1 NNO 1.9 5.6 13.0 56 1024(-1.2/3h) 15 1/8 -- --
09:00 6.9 6 -0.6 E 5.6 9.3 16.7 59 1024.4(-0.8/3h) 15 1/8 -- --
08:00 5.6 4.5 0.3 SE 5.6 9.3 14.8 69 1024.8(-0.6/3h) 15 1/8 -- --
07:00 4.0 2.1 -0.2 E 7.4 7.4 9.3 74 1025.5(-0.3/3h) 12 1/8 -- --
06:00 2.1 2.1 -0.4 ESE 3.7 5.6 9.3 83 1025.6(-0.6/3h) 12 1/8 0/12h
--
05:00 0.8 0.8 -0.9 E 3.7 5.6 7.4 88 1025.8(-0.4/3h) 12 1/8 -- --
04:00 -0.3 -0.3 -1.9 ENE 3.7 5.6 5.6 89 1026.2(-0.4/3h) 12 2/8 -- --
03:00 0.6 -1.2 -1.2 NE 5.6 5.6 7.4 88 1026.3(-0.5/3h) 12 2/8 -- --
02:00 1.1 1.1 -1.2 ENE 3.7 5.6 7.4 85 1026.2(-0.7/3h) 12 2/8 -- --
01:00 2.6 1.1 -0.8 ENE 5.6 5.6 7.4 78 1026.3(0.1/3h) 12 2/8 -- --
00:00 3.5 2.1 -0.8 ENE 5.6 7.4 9.3 73 1026.6(0.7/3h) 12 2/8 0/6h
0/24h
--

1 Coordinated Universal Time. Actuellement il est 00:00 locale et 22:00 UTC.

2 Le vent souffle depuis la direction indiquée vers la direction oposée.

3 Les rafales max. sont disponible 40 min après l'heure du relevé.

4 Pour les stations d'altitude (plus de 600m) le géopotentiel du niveau le plus proche de la pression obligatoire est indiqué.

5 Les stations disposant d'un diffuseur peuvent indiquer "trace". Cela signifie que des précipitations ont touchés le sol mais que la quantité est inférieure à 0.1 mm.

Récapitulatif de la journée
Température [°C] Vent [km/h] Ensoleillement4 [h] Precipitations totale5 [mm] Pression [Hpa]
Min1 Max.2 Moy.3 Max. Min Max.
-0.4 16.6 8.6 22.2 0 h 0 min 0 1016.1 1026.6

1 Température minimale relevée entre 18:00 UTC la veille et 18:00 UTC le jour donné.

2 Température maximale relevée entre 06:00 UTC le jour donné et 06:00 UTC le lendemain.

3 Vent moyen de la journée basé sur les relevés horaires.

4 Ensoleillement en heures relevé entre 06:00 UTC la veille et 06:00 UTC le jour donné.

5 Précipitations totales tombées entre 06:00 UTC la jour donné et 06:00 UTC le lendemain.

Graphiques horaires